createdAt,value
2018-07-12T00:00:57.939Z,34.80
2018-07-12T00:01:58.007Z,37.90
2018-07-12T00:02:58.600Z,38.60
2018-07-12T00:03:58.089Z,39.00
2018-07-12T00:04:57.951Z,39.10
2018-07-12T00:05:58.076Z,39.60
2018-07-12T00:06:58.019Z,39.20
2018-07-12T00:07:57.997Z,40.20
2018-07-12T00:08:57.987Z,39.50
2018-07-12T00:09:58.022Z,41.10
2018-07-12T00:10:57.978Z,42.20
2018-07-12T00:11:58.046Z,41.20
2018-07-12T00:12:58.008Z,41.10
2018-07-12T00:13:58.003Z,40.40
2018-07-12T00:14:58.047Z,42.60
2018-07-12T00:15:58.009Z,43.80
2018-07-12T00:16:57.986Z,42.80
2018-07-12T00:17:58.004Z,41.30
2018-07-12T00:18:58.954Z,43.00
2018-07-12T00:19:58.059Z,45.10
2018-07-12T00:20:58.024Z,45.60
2018-07-12T00:21:58.079Z,42.40
2018-07-12T00:22:58.056Z,42.20
2018-07-12T00:23:58.037Z,39.60
2018-07-12T00:24:58.040Z,45.30
2018-07-12T00:25:58.008Z,50.30
2018-07-12T00:26:58.040Z,46.50
2018-07-12T00:27:58.089Z,39.10
2018-07-12T00:28:58.035Z,38.70
2018-07-12T00:29:58.036Z,38.00
2018-07-12T00:30:58.036Z,38.30
2018-07-12T00:31:58.029Z,39.50
2018-07-12T00:32:58.055Z,40.60
2018-07-12T00:33:58.080Z,42.40
2018-07-12T00:34:58.152Z,41.10
2018-07-12T00:35:58.026Z,41.20
2018-07-12T00:36:58.038Z,40.60
2018-07-12T00:37:58.092Z,43.40
2018-07-12T00:38:58.073Z,47.50
2018-07-12T00:39:58.078Z,46.10
2018-07-12T00:40:58.133Z,44.50
2018-07-12T00:41:58.092Z,44.30
2018-07-12T00:42:58.033Z,43.30
2018-07-12T00:43:58.963Z,42.40
2018-07-12T00:44:58.109Z,43.00
2018-07-12T00:45:58.050Z,43.00
2018-07-12T00:46:58.088Z,44.50
2018-07-12T00:47:58.048Z,43.30
2018-07-12T00:48:58.109Z,43.80
2018-07-12T00:49:58.098Z,43.70
2018-07-12T00:50:58.109Z,44.70
2018-07-12T00:51:58.183Z,43.40
2018-07-12T00:52:58.058Z,41.00
2018-07-12T00:53:58.115Z,42.40
2018-07-12T00:54:58.196Z,47.60
2018-07-12T00:55:58.135Z,46.50
2018-07-12T00:56:58.105Z,44.70
2018-07-12T00:57:58.957Z,43.00
2018-07-12T00:58:58.097Z,44.90
2018-07-12T00:59:58.120Z,45.30
2018-07-12T01:00:58.207Z,44.00
2018-07-12T01:01:58.129Z,43.70
2018-07-12T01:02:58.133Z,42.40
2018-07-12T01:03:58.211Z,41.10
2018-07-12T01:04:58.098Z,43.40
2018-07-12T01:05:58.101Z,41.70
2018-07-12T01:06:58.211Z,40.40
2018-07-12T01:07:58.170Z,43.70
2018-07-12T01:08:58.163Z,43.40
2018-07-12T01:09:58.106Z,42.50
2018-07-12T01:10:58.167Z,42.40
2018-07-12T01:11:58.153Z,41.00
2018-07-12T01:12:58.189Z,43.90
2018-07-12T01:13:58.133Z,43.20
2018-07-12T01:14:58.130Z,44.10
2018-07-12T01:15:58.122Z,44.50
2018-07-12T01:16:58.194Z,48.40
2018-07-12T01:17:58.156Z,52.30
2018-07-12T01:18:58.138Z,50.20
2018-07-12T01:19:58.134Z,52.80
2018-07-12T01:20:58.175Z,53.80
2018-07-12T01:21:58.184Z,52.10
2018-07-12T01:22:58.170Z,55.80
2018-07-12T01:23:58.159Z,53.70
2018-07-12T01:24:58.185Z,55.20
2018-07-12T01:25:58.256Z,59.30
2018-07-12T01:26:58.154Z,53.80
2018-07-12T01:27:58.416Z,51.40
2018-07-12T01:28:58.211Z,55.80
2018-07-12T01:29:58.213Z,53.30
2018-07-12T01:30:58.254Z,55.00
2018-07-12T01:31:58.167Z,54.00
2018-07-12T01:32:58.208Z,53.80
2018-07-12T01:33:58.202Z,52.50
2018-07-12T01:34:58.248Z,52.80
2018-07-12T01:35:58.241Z,51.80
2018-07-12T01:36:58.211Z,53.70
2018-07-12T01:37:58.267Z,55.20
2018-07-12T01:38:58.972Z,54.10
2018-07-12T01:39:58.230Z,51.90
2018-07-12T01:40:58.174Z,50.80
2018-07-12T01:41:58.278Z,51.90
2018-07-12T01:42:58.234Z,53.30
2018-07-12T01:43:58.195Z,52.50
2018-07-12T01:44:58.209Z,52.80
2018-07-12T01:45:58.208Z,52.90
2018-07-12T01:46:58.234Z,51.70
2018-07-12T01:47:58.232Z,53.80
2018-07-12T01:48:58.281Z,53.30
2018-07-12T01:49:58.498Z,53.00
2018-07-12T01:50:58.213Z,52.20
2018-07-12T01:51:58.247Z,55.20
2018-07-12T01:52:58.256Z,52.50
2018-07-12T01:53:58.339Z,48.80
2018-07-12T01:54:58.983Z,51.70
2018-07-12T01:55:58.223Z,53.00
2018-07-12T01:56:58.226Z,51.40
2018-07-12T01:57:58.262Z,51.60
2018-07-12T01:58:58.237Z,52.50
2018-07-12T01:59:58.217Z,51.80
2018-07-12T02:00:58.237Z,53.60
2018-07-12T02:01:58.268Z,55.60
2018-07-12T02:02:58.231Z,54.50
2018-07-12T02:03:58.272Z,56.60
2018-07-12T02:04:58.285Z,55.70
2018-07-12T02:05:58.285Z,58.00
2018-07-12T02:06:58.308Z,58.50
2018-07-12T02:07:58.337Z,59.10
2018-07-12T02:08:58.314Z,57.20
2018-07-12T02:09:58.248Z,54.80
2018-07-12T02:10:58.344Z,56.00
2018-07-12T02:11:58.266Z,53.50
2018-07-12T02:12:58.315Z,54.80
2018-07-12T02:13:58.246Z,51.90
2018-07-12T02:14:58.352Z,54.90
2018-07-12T02:15:59.104Z,54.20
2018-07-12T02:16:59.046Z,52.90
2018-07-12T02:17:59.006Z,50.50
2018-07-12T02:18:58.430Z,49.70
2018-07-12T02:19:58.301Z,51.50
2018-07-12T02:20:58.267Z,51.80
2018-07-12T02:21:58.312Z,52.20
2018-07-12T02:22:58.420Z,49.50
2018-07-12T02:23:58.324Z,53.10
2018-07-12T02:24:58.317Z,53.30
2018-07-12T02:25:58.326Z,53.10
2018-07-12T02:26:58.342Z,53.20
2018-07-12T02:27:58.291Z,54.90
2018-07-12T02:28:58.308Z,52.00
2018-07-12T02:29:58.305Z,58.50
2018-07-12T02:30:58.319Z,57.70
2018-07-12T02:31:58.401Z,51.40
2018-07-12T02:32:58.367Z,50.70
2018-07-12T02:33:58.346Z,50.00
2018-07-12T02:34:58.414Z,51.00
2018-07-12T02:35:58.321Z,50.40
2018-07-12T02:36:58.309Z,51.00
2018-07-12T02:37:58.324Z,51.30
2018-07-12T02:38:58.489Z,52.80
2018-07-12T02:39:58.329Z,50.50
2018-07-12T02:40:58.368Z,52.00
2018-07-12T02:41:58.328Z,53.60
2018-07-12T02:42:58.454Z,52.80
2018-07-12T02:43:58.329Z,52.80
2018-07-12T02:44:58.367Z,51.20
2018-07-12T02:45:58.360Z,50.40
2018-07-12T02:46:58.383Z,55.10
2018-07-12T02:47:58.484Z,52.90
2018-07-12T02:48:58.391Z,57.60
2018-07-12T02:49:58.407Z,54.00
2018-07-12T02:50:58.379Z,57.80
2018-07-12T02:51:58.344Z,54.20
2018-07-12T02:52:58.334Z,51.80
2018-07-12T02:53:58.537Z,51.30
2018-07-12T02:54:58.390Z,50.60
2018-07-12T02:55:58.381Z,51.60
2018-07-12T02:56:58.405Z,52.90
2018-07-12T02:57:58.392Z,52.80
2018-07-12T02:58:58.430Z,52.90
2018-07-12T02:59:58.359Z,52.20
2018-07-12T03:00:58.453Z,53.90
2018-07-12T03:01:58.428Z,49.80
2018-07-12T03:02:58.411Z,50.20
2018-07-12T03:03:58.400Z,48.00
2018-07-12T03:04:58.426Z,47.50
2018-07-12T03:05:58.382Z,52.20
2018-07-12T03:06:58.505Z,48.50
2018-07-12T03:07:58.359Z,52.10
2018-07-12T03:08:59.148Z,52.70
2018-07-12T03:09:58.418Z,52.80
2018-07-12T03:10:58.401Z,52.70
2018-07-12T03:11:58.518Z,51.00
2018-07-12T03:12:58.372Z,50.50
2018-07-12T03:13:58.381Z,52.80
2018-07-12T03:14:58.430Z,54.00
2018-07-12T03:15:58.415Z,52.70
2018-07-12T03:16:58.492Z,54.60
2018-07-12T03:17:58.407Z,51.90
2018-07-12T03:18:58.423Z,51.50
2018-07-12T03:19:58.431Z,52.40
2018-07-12T03:20:58.425Z,51.30
2018-07-12T03:21:58.395Z,52.50
2018-07-12T03:22:58.458Z,53.90
2018-07-12T03:23:58.442Z,51.30
2018-07-12T03:24:59.173Z,51.10
2018-07-12T03:25:58.449Z,52.30
2018-07-12T03:26:58.468Z,52.50
2018-07-12T03:27:58.558Z,53.70
2018-07-12T03:28:58.509Z,54.20
2018-07-12T03:29:58.546Z,51.90
2018-07-12T03:30:58.501Z,54.20
2018-07-12T03:31:58.449Z,53.90
2018-07-12T03:32:58.452Z,54.40
2018-07-12T03:33:58.507Z,50.40
2018-07-12T03:34:58.424Z,55.50
2018-07-12T03:35:58.471Z,52.10
2018-07-12T03:36:59.154Z,51.80
2018-07-12T03:37:58.474Z,52.50
2018-07-12T03:38:58.449Z,54.80
2018-07-12T03:39:58.514Z,51.90
2018-07-12T03:40:58.583Z,52.00
2018-07-12T03:41:58.480Z,52.70
2018-07-12T03:42:58.567Z,50.60
2018-07-12T03:43:58.451Z,53.30
2018-07-12T03:44:58.447Z,51.50
2018-07-12T03:45:58.458Z,48.40
2018-07-12T03:46:58.462Z,49.60
2018-07-12T03:47:58.463Z,50.90
2018-07-12T03:48:58.682Z,52.10
2018-07-12T03:49:58.461Z,53.30
2018-07-12T03:50:58.520Z,48.50
2018-07-12T03:51:58.500Z,49.50
2018-07-12T03:52:58.516Z,49.30
2018-07-12T03:53:58.519Z,51.40
2018-07-12T03:54:58.464Z,50.20
2018-07-12T03:55:58.502Z,48.40
2018-07-12T03:56:58.526Z,46.80
2018-07-12T03:57:58.549Z,49.50
2018-07-12T03:58:58.577Z,46.60
2018-07-12T03:59:58.572Z,46.10
2018-07-12T04:00:58.504Z,46.80
2018-07-12T04:01:58.477Z,46.50
2018-07-12T04:02:58.524Z,44.70
2018-07-12T04:03:58.554Z,45.30
2018-07-12T04:04:58.587Z,45.90
2018-07-12T04:05:58.490Z,46.50
2018-07-12T04:06:58.499Z,47.00
2018-07-12T04:07:58.505Z,44.70
2018-07-12T04:08:58.568Z,46.30
2018-07-12T04:09:58.601Z,43.50
2018-07-12T04:10:58.699Z,42.40
2018-07-12T04:11:58.539Z,42.00
2018-07-12T04:12:58.531Z,43.00
2018-07-12T04:13:58.570Z,43.00
2018-07-12T04:14:58.577Z,41.80
2018-07-12T04:15:58.627Z,42.40
2018-07-12T04:16:58.581Z,42.80
2018-07-12T04:17:58.542Z,41.50
2018-07-12T04:18:58.569Z,40.80
2018-07-12T04:19:58.698Z,40.30
2018-07-12T04:20:58.601Z,40.50
2018-07-12T04:21:58.637Z,39.70
2018-07-12T04:22:58.594Z,40.10
2018-07-12T04:23:58.768Z,39.10
2018-07-12T04:24:58.584Z,39.00
2018-07-12T04:25:58.656Z,39.30
2018-07-12T04:26:58.568Z,40.40
2018-07-12T04:27:58.621Z,39.40
2018-07-12T04:28:58.792Z,37.40
2018-07-12T04:29:58.703Z,39.00
2018-07-12T04:30:58.617Z,40.40
2018-07-12T04:31:58.792Z,38.80
2018-07-12T04:32:58.815Z,38.50
2018-07-12T04:33:58.583Z,38.70
2018-07-12T04:34:58.631Z,37.60
2018-07-12T04:35:58.633Z,36.70
2018-07-12T04:36:58.771Z,36.90
2018-07-12T04:37:58.623Z,37.30
2018-07-12T04:38:58.672Z,37.30
2018-07-12T04:39:59.096Z,36.00
2018-07-12T04:40:58.610Z,36.90
2018-07-12T04:41:58.588Z,36.60
2018-07-12T04:42:58.603Z,35.90
2018-07-12T04:43:58.572Z,34.70
2018-07-12T04:44:58.680Z,34.70
2018-07-12T04:45:58.711Z,35.20
2018-07-12T04:46:59.174Z,35.10
2018-07-12T04:47:58.611Z,35.10
2018-07-12T04:48:58.645Z,34.40
2018-07-12T04:49:58.650Z,37.70
2018-07-12T04:50:59.119Z,35.70
2018-07-12T04:51:58.677Z,35.20
2018-07-12T04:52:58.787Z,34.80
2018-07-12T04:53:58.809Z,36.10
2018-07-12T04:54:58.716Z,35.00
2018-07-12T04:55:58.635Z,34.60
2018-07-12T04:56:59.549Z,34.50
2018-07-12T04:57:59.118Z,35.00
2018-07-12T04:58:58.726Z,35.20
2018-07-12T04:59:58.833Z,35.10
2018-07-12T05:00:58.884Z,33.60
2018-07-12T05:01:58.648Z,32.80
2018-07-12T05:02:58.859Z,33.00
2018-07-12T05:03:58.877Z,31.80
2018-07-12T05:04:58.728Z,31.80
2018-07-12T05:05:59.683Z,31.70
2018-07-12T05:06:58.712Z,33.50
2018-07-12T05:07:58.703Z,33.70
2018-07-12T05:08:58.729Z,32.80
2018-07-12T05:09:58.704Z,31.80
2018-07-12T05:10:58.849Z,32.20
2018-07-12T05:11:58.769Z,31.80
2018-07-12T05:13:00.696Z,31.90
2018-07-12T05:13:58.760Z,30.40
2018-07-12T05:14:58.668Z,31.20
2018-07-12T05:15:58.730Z,30.20
2018-07-12T05:16:58.693Z,28.70
2018-07-12T05:17:58.780Z,28.30
2018-07-12T05:18:58.782Z,28.30
2018-07-12T05:19:58.689Z,28.10
2018-07-12T05:20:58.669Z,26.40
2018-07-12T05:21:58.763Z,24.50
2018-07-12T05:22:59.568Z,25.70
2018-07-12T05:23:58.809Z,25.10
2018-07-12T05:24:58.681Z,23.50
2018-07-12T05:25:58.887Z,22.60
2018-07-12T05:26:58.774Z,21.80
2018-07-12T05:28:00.761Z,21.90
2018-07-12T05:28:58.698Z,21.80
2018-07-12T05:29:58.994Z,21.80
2018-07-12T05:30:58.771Z,21.20
2018-07-12T05:31:58.759Z,20.60
2018-07-12T05:32:58.867Z,21.30
2018-07-12T05:33:59.118Z,20.60
2018-07-12T05:34:59.042Z,20.30
2018-07-12T05:35:58.881Z,19.70
2018-07-12T05:36:58.786Z,19.00
2018-07-12T05:37:58.806Z,18.40
2018-07-12T05:38:58.902Z,17.80
2018-07-12T05:39:59.174Z,17.80
2018-07-12T05:40:58.973Z,17.00
2018-07-12T05:41:58.936Z,16.90
2018-07-12T05:42:58.823Z,16.50
2018-07-12T05:43:58.874Z,16.80
2018-07-12T05:44:58.815Z,18.00
2018-07-12T05:45:58.932Z,16.80
2018-07-12T05:46:58.832Z,16.60
2018-07-12T05:47:58.931Z,16.20
2018-07-12T05:48:58.763Z,15.90
2018-07-12T05:49:58.920Z,16.00
2018-07-12T05:50:59.740Z,15.40
2018-07-12T05:51:58.873Z,14.90
2018-07-12T05:52:58.824Z,14.30
2018-07-12T05:53:58.955Z,14.30
2018-07-12T05:54:58.873Z,13.90
2018-07-12T05:55:59.212Z,13.00
2018-07-12T05:56:59.565Z,12.90
2018-07-12T05:57:58.961Z,13.60
2018-07-12T05:58:59.288Z,13.20
2018-07-12T05:59:59.007Z,13.10
2018-07-12T06:00:59.230Z,13.10
2018-07-12T06:01:59.120Z,14.20
2018-07-12T06:02:59.959Z,13.10
2018-07-12T06:04:01.716Z,13.70
2018-07-12T06:04:59.170Z,13.40
2018-07-12T06:05:59.106Z,12.70
2018-07-12T06:06:59.266Z,12.80
2018-07-12T06:07:59.248Z,13.10
2018-07-12T06:08:59.936Z,12.50
2018-07-12T06:09:58.863Z,12.80
2018-07-12T06:10:59.093Z,13.30
2018-07-12T06:11:59.061Z,12.90
2018-07-12T06:12:59.004Z,12.10
2018-07-12T06:13:59.365Z,11.90
2018-07-12T06:14:59.140Z,11.60
2018-07-12T06:15:59.128Z,12.00
2018-07-12T06:16:59.008Z,11.30
2018-07-12T06:17:58.957Z,12.20
2018-07-12T06:18:59.331Z,11.40
2018-07-12T06:19:59.165Z,12.20
2018-07-12T06:20:59.585Z,11.30
2018-07-12T06:21:58.983Z,12.20
2018-07-12T06:22:59.668Z,12.10
2018-07-12T06:23:59.034Z,12.20
2018-07-12T06:24:58.979Z,12.10
2018-07-12T06:25:59.375Z,11.80
2018-07-12T06:27:01.702Z,11.60
2018-07-12T06:27:59.150Z,11.40
2018-07-12T06:28:59.075Z,11.50
2018-07-12T06:29:59.681Z,11.40
2018-07-12T06:30:59.100Z,11.20
2018-07-12T06:31:59.109Z,11.40
2018-07-12T06:32:59.094Z,12.60
2018-07-12T06:33:59.069Z,12.00
2018-07-12T06:34:59.121Z,12.10
2018-07-12T06:35:59.091Z,11.90
2018-07-12T06:36:59.315Z,10.80
2018-07-12T06:37:59.175Z,12.60
2018-07-12T06:39:00.739Z,11.90
2018-07-12T06:39:59.697Z,10.70
2018-07-12T06:40:59.134Z,11.70
2018-07-12T06:41:59.148Z,11.60
2018-07-12T06:42:59.213Z,11.30
2018-07-12T06:43:59.282Z,11.60
2018-07-12T06:44:59.279Z,11.10
2018-07-12T06:45:59.210Z,11.40
2018-07-12T06:47:00.093Z,11.10
2018-07-12T06:47:59.226Z,11.10
2018-07-12T06:48:59.198Z,11.30
2018-07-12T06:49:59.251Z,10.80
2018-07-12T06:50:59.407Z,10.00
2018-07-12T06:51:59.330Z,11.80
2018-07-12T06:52:59.246Z,10.90
2018-07-12T06:53:59.490Z,10.60
2018-07-12T06:54:59.316Z,11.40
2018-07-12T06:55:59.294Z,10.80
2018-07-12T06:57:59.342Z,10.10
2018-07-12T06:58:59.323Z,10.50
2018-07-12T06:59:59.372Z,10.70
2018-07-12T07:00:59.383Z,11.20
2018-07-12T07:01:59.372Z,10.90
2018-07-12T07:03:02.289Z,10.70
2018-07-12T07:03:59.401Z,10.50
2018-07-12T07:04:59.450Z,10.90
2018-07-12T07:06:00.341Z,9.50
2018-07-12T07:06:59.446Z,10.30
2018-07-12T07:07:59.453Z,9.90
2018-07-12T07:08:59.418Z,9.60
2018-07-12T07:09:59.437Z,9.40
2018-07-12T07:10:59.452Z,9.70
2018-07-12T07:11:59.436Z,10.30
2018-07-12T07:12:59.446Z,10.30
2018-07-12T07:13:59.818Z,9.90
2018-07-12T07:14:59.450Z,10.50
2018-07-12T07:15:59.461Z,10.00
2018-07-12T07:16:59.509Z,11.00
2018-07-12T07:17:59.499Z,10.20
2018-07-12T07:18:59.591Z,10.10
2018-07-12T07:19:59.528Z,9.60
2018-07-12T07:20:59.567Z,9.80
2018-07-12T07:21:59.638Z,9.60
2018-07-12T07:22:59.615Z,9.70
2018-07-12T07:24:00.439Z,11.60
2018-07-12T07:25:02.965Z,10.00
2018-07-12T07:26:00.121Z,9.40
2018-07-12T07:27:02.363Z,9.80
2018-07-12T07:27:59.714Z,9.20
2018-07-12T07:29:00.744Z,10.10
2018-07-12T07:29:59.683Z,9.00
2018-07-12T07:30:59.706Z,9.40
2018-07-12T07:31:59.692Z,9.50
2018-07-12T07:32:59.704Z,9.10
2018-07-12T07:33:59.717Z,9.20
2018-07-12T07:35:00.628Z,8.90
2018-07-12T07:35:59.743Z,9.60
2018-07-12T07:36:59.932Z,9.60
2018-07-12T07:38:03.000Z,10.40
2018-07-12T07:38:59.850Z,9.80
2018-07-12T07:39:59.804Z,9.60
2018-07-12T07:40:59.861Z,9.70
2018-07-12T07:41:59.814Z,8.80
2018-07-12T07:43:00.892Z,9.70
2018-07-12T07:43:59.866Z,9.30
2018-07-12T07:44:59.944Z,9.60
2018-07-12T07:45:59.938Z,9.90
2018-07-12T07:47:00.001Z,10.00
2018-07-12T07:47:59.906Z,9.60
2018-07-12T07:49:01.491Z,9.10
2018-07-12T07:49:59.936Z,9.50
2018-07-12T07:51:00.100Z,9.60
2018-07-12T07:52:04.271Z,9.10
2018-07-12T07:53:00.764Z,8.80
2018-07-12T07:54:00.058Z,9.80
2018-07-12T07:55:00.067Z,8.30
2018-07-12T07:56:00.272Z,8.00
2018-07-12T07:57:00.903Z,9.00
2018-07-12T07:58:00.141Z,8.20
2018-07-12T07:59:03.773Z,7.20
2018-07-12T08:00:01.969Z,7.80
2018-07-12T08:01:01.006Z,7.40
2018-07-12T08:03:00.232Z,7.60
2018-07-12T08:04:00.638Z,7.60
2018-07-12T08:05:00.558Z,8.60
2018-07-12T08:06:01.184Z,7.70
2018-07-12T08:07:00.761Z,7.50
2018-07-12T08:08:02.336Z,7.90
2018-07-12T08:09:01.845Z,8.10
2018-07-12T08:10:03.695Z,8.20
2018-07-12T08:11:00.508Z,7.60
2018-07-12T08:12:01.746Z,6.90
2018-07-12T08:13:00.342Z,7.80
2018-07-12T08:15:03.402Z,8.00
2018-07-12T08:16:00.406Z,7.40
2018-07-12T08:17:00.551Z,6.50
2018-07-12T08:18:00.629Z,7.20
2018-07-12T08:19:00.864Z,6.90
2018-07-12T08:20:00.439Z,7.60
2018-07-12T08:21:00.764Z,7.60
2018-07-12T08:22:03.443Z,7.10
2018-07-12T08:23:00.778Z,7.40
2018-07-12T08:24:00.578Z,7.70
2018-07-12T08:25:00.583Z,7.70
2018-07-12T08:26:02.384Z,8.00
2018-07-12T08:27:01.267Z,7.90
2018-07-12T08:29:01.445Z,7.10
2018-07-12T08:30:01.142Z,6.70
2018-07-12T08:31:04.664Z,7.50
2018-07-12T08:32:00.956Z,6.40
2018-07-12T08:33:02.077Z,6.90
2018-07-12T08:34:03.454Z,6.80
2018-07-12T08:35:02.059Z,6.70
2018-07-12T08:36:00.869Z,6.80
2018-07-12T08:37:02.930Z,6.70
2018-07-12T08:38:02.848Z,6.30
2018-07-12T08:39:00.819Z,6.10
2018-07-12T08:40:01.786Z,6.70
2018-07-12T08:41:01.500Z,7.40
2018-07-12T08:42:01.097Z,7.30
2018-07-12T08:43:01.516Z,7.60
2018-07-12T08:44:00.976Z,7.90
2018-07-12T08:45:01.077Z,8.80
2018-07-12T08:46:01.077Z,9.30
2018-07-12T08:47:02.004Z,7.90
2018-07-12T08:48:01.287Z,7.40
2018-07-12T08:49:02.120Z,7.20
2018-07-12T08:50:02.157Z,7.10
2018-07-12T08:51:04.032Z,7.40
2018-07-12T08:52:01.036Z,7.60
2018-07-12T08:53:01.172Z,6.90
2018-07-12T08:54:01.039Z,7.70
2018-07-12T08:55:12.780Z,7.50
2018-07-12T08:56:01.122Z,7.60
2018-07-12T08:57:01.109Z,6.90
2018-07-12T08:58:02.390Z,7.50
2018-07-12T08:59:03.289Z,6.80
2018-07-12T09:00:01.143Z,8.10
2018-07-12T09:01:01.298Z,6.20
2018-07-12T09:02:01.152Z,6.10
2018-07-12T09:03:01.289Z,6.20
2018-07-12T09:04:01.198Z,6.00
2018-07-12T09:05:01.282Z,6.60
2018-07-12T09:06:01.216Z,6.60
2018-07-12T09:07:01.300Z,6.10
2018-07-12T09:08:01.239Z,6.30
2018-07-12T09:09:01.321Z,7.10
2018-07-12T09:10:01.476Z,6.90
2018-07-12T09:11:01.329Z,6.80
2018-07-12T09:12:01.595Z,7.30
2018-07-12T09:13:08.141Z,7.00
2018-07-12T09:14:01.381Z,7.00
2018-07-12T09:15:01.439Z,7.50
2018-07-12T09:16:01.487Z,7.00
2018-07-12T09:17:01.446Z,6.40
2018-07-12T09:18:01.698Z,6.10
2018-07-12T09:19:01.547Z,6.60
2018-07-12T09:20:01.570Z,6.20
2018-07-12T09:21:01.589Z,6.00
2018-07-12T09:22:01.637Z,6.50
2018-07-12T09:23:01.579Z,7.20
2018-07-12T09:24:01.574Z,6.90
2018-07-12T09:25:01.644Z,7.30
2018-07-12T09:26:02.407Z,7.30
2018-07-12T09:27:04.369Z,6.90
2018-07-12T09:28:01.693Z,6.40
2018-07-12T09:29:01.871Z,6.90
2018-07-12T09:30:01.707Z,6.40
2018-07-12T09:31:01.798Z,6.10
2018-07-12T09:32:02.304Z,6.30
2018-07-12T09:33:01.800Z,8.80
2018-07-12T09:34:01.884Z,8.20
2018-07-12T09:35:01.880Z,6.50
2018-07-12T09:36:01.833Z,6.50
2018-07-12T09:37:02.094Z,6.30
2018-07-12T09:38:02.826Z,6.60
2018-07-12T09:39:01.920Z,6.70
2018-07-12T09:48:08.776Z,8.80
2018-07-12T09:49:09.789Z,7.10
2018-07-12T09:50:08.739Z,7.20
2018-07-12T09:51:09.358Z,8.40
2018-07-12T09:52:08.943Z,11.00
2018-07-12T09:53:08.818Z,10.70
2018-07-12T09:54:08.928Z,6.70
2018-07-12T09:55:08.828Z,7.10
2018-07-12T09:56:09.649Z,7.30
2018-07-12T09:57:09.245Z,7.90
2018-07-12T09:58:08.821Z,8.80
2018-07-12T09:59:09.716Z,9.60
2018-07-12T10:00:08.905Z,10.00
2018-07-12T10:01:08.927Z,10.20
2018-07-12T10:02:08.947Z,10.00
2018-07-12T10:03:08.930Z,10.40
2018-07-12T10:04:09.998Z,10.70
2018-07-12T10:05:08.929Z,11.10
2018-07-12T10:06:08.983Z,9.80
2018-07-12T10:07:08.997Z,10.50
2018-07-12T10:08:09.027Z,10.30
2018-07-12T10:09:09.089Z,10.60
2018-07-12T10:10:09.007Z,10.70
2018-07-12T10:11:09.029Z,10.40
2018-07-12T10:12:09.030Z,10.30
2018-07-12T10:13:09.112Z,8.80
2018-07-12T10:14:09.126Z,9.30
2018-07-12T10:15:09.121Z,9.00
2018-07-12T10:16:09.122Z,9.70
2018-07-12T10:17:09.127Z,9.30
2018-07-12T10:18:09.171Z,8.80
2018-07-12T10:19:09.171Z,9.20
2018-07-12T10:20:09.187Z,9.50
2018-07-12T10:21:09.725Z,9.80
2018-07-12T10:22:09.196Z,10.30
2018-07-12T10:23:09.841Z,10.30
2018-07-12T10:24:09.272Z,10.60
2018-07-12T10:25:09.298Z,10.60
2018-07-12T10:26:09.301Z,10.40
2018-07-12T10:27:09.299Z,9.50
2018-07-12T10:28:09.352Z,9.90
2018-07-12T10:29:09.407Z,9.20
2018-07-12T10:30:09.326Z,10.00
2018-07-12T10:31:09.339Z,13.80
2018-07-12T10:32:09.379Z,10.70
2018-07-12T10:33:09.355Z,11.20
2018-07-12T10:34:09.377Z,9.70
2018-07-12T10:35:09.434Z,10.00
2018-07-12T10:36:09.408Z,10.60
2018-07-12T10:37:09.416Z,10.40
2018-07-12T10:38:09.442Z,51.60
2018-07-12T10:39:09.484Z,18.60
2018-07-12T10:40:09.506Z,11.90
2018-07-12T10:41:09.518Z,12.60
2018-07-12T10:42:34.756Z,13.30
2018-07-12T10:43:09.554Z,11.50
2018-07-12T22:01:07.087Z,12.30
2018-07-12T22:02:05.213Z,11.10
2018-07-12T22:03:03.440Z,9.80
2018-07-12T22:04:02.118Z,9.60
2018-07-12T22:05:01.295Z,9.60
2018-07-12T22:06:03.731Z,8.90
2018-07-12T22:07:04.193Z,9.30
2018-07-12T22:08:05.049Z,9.10
2018-07-12T22:09:05.581Z,8.80
2018-07-12T22:10:00.876Z,8.70
2018-07-12T22:11:01.079Z,9.50
2018-07-12T22:12:00.692Z,9.10
2018-07-12T22:13:01.273Z,9.70
2018-07-12T22:14:01.067Z,8.70
2018-07-12T22:15:00.931Z,9.50
2018-07-12T22:16:01.317Z,9.80
2018-07-12T22:17:00.527Z,9.40
2018-07-12T22:18:01.262Z,8.90
2018-07-12T22:19:02.499Z,9.20
2018-07-12T22:20:00.741Z,9.60
2018-07-12T22:21:01.465Z,10.00
2018-07-12T22:22:00.393Z,11.60
2018-07-12T22:23:01.606Z,16.80
2018-07-12T22:24:02.075Z,15.50
2018-07-12T22:26:01.976Z,11.10
2018-07-12T22:28:00.432Z,10.00
2018-07-12T22:29:00.490Z,9.80
2018-07-12T22:30:00.419Z,10.80
2018-07-12T22:31:00.646Z,10.90
2018-07-12T22:32:01.260Z,10.60
2018-07-12T22:33:00.669Z,10.30
2018-07-12T22:34:00.621Z,10.80
2018-07-12T22:35:00.566Z,10.60
2018-07-12T22:36:01.092Z,10.60
2018-07-12T22:37:00.543Z,11.00
2018-07-12T22:38:00.595Z,10.90
2018-07-12T22:39:00.579Z,11.20
2018-07-12T22:40:01.649Z,11.10
2018-07-12T22:41:01.410Z,11.10
2018-07-12T22:42:00.685Z,10.40
2018-07-12T22:43:00.568Z,11.30
2018-07-12T22:44:02.087Z,11.60
2018-07-12T22:45:00.453Z,11.50
2018-07-12T22:46:01.682Z,10.60
2018-07-12T22:47:00.713Z,10.60
2018-07-12T22:48:03.098Z,11.20
2018-07-12T22:49:00.928Z,10.70
2018-07-12T22:50:00.503Z,11.50
2018-07-12T22:51:00.470Z,11.40
2018-07-12T22:52:00.215Z,11.50
2018-07-12T22:53:00.708Z,10.90
2018-07-12T22:54:00.636Z,10.80
2018-07-12T22:55:04.465Z,11.00
2018-07-12T22:56:00.645Z,11.30
2018-07-12T22:57:01.378Z,10.70
2018-07-12T22:58:01.782Z,10.40
2018-07-12T22:59:00.563Z,10.60
2018-07-12T23:00:01.561Z,11.00
2018-07-12T23:01:00.702Z,10.70
2018-07-12T23:02:00.719Z,10.50
2018-07-12T23:03:00.480Z,10.70
2018-07-12T23:04:00.526Z,10.80
2018-07-12T23:05:00.770Z,10.60
2018-07-12T23:06:00.708Z,10.20
2018-07-12T23:07:00.618Z,10.90
2018-07-12T23:08:01.040Z,11.40
2018-07-12T23:09:00.616Z,10.60
2018-07-12T23:10:01.355Z,10.40
2018-07-12T23:11:00.521Z,10.30
2018-07-12T23:12:00.459Z,10.50
2018-07-12T23:13:00.660Z,10.80
2018-07-12T23:14:00.648Z,10.60
2018-07-12T23:15:01.591Z,10.30
2018-07-12T23:16:00.886Z,10.90
2018-07-12T23:17:00.694Z,10.20
2018-07-12T23:18:00.988Z,10.10
2018-07-12T23:19:01.370Z,11.30
2018-07-12T23:20:00.808Z,11.10
2018-07-12T23:21:00.698Z,11.40
2018-07-12T23:22:01.737Z,10.20
2018-07-12T23:23:00.528Z,10.50
2018-07-12T23:24:00.506Z,11.20
2018-07-12T23:25:01.393Z,10.70
2018-07-12T23:26:00.588Z,10.80
2018-07-12T23:27:00.347Z,10.30
2018-07-12T23:28:01.214Z,9.90
2018-07-12T23:29:00.712Z,11.00
2018-07-12T23:30:01.028Z,10.10
2018-07-12T23:31:00.812Z,10.60
2018-07-12T23:32:01.238Z,10.90
2018-07-12T23:33:01.343Z,10.90
2018-07-12T23:34:00.804Z,10.30
2018-07-12T23:35:00.721Z,11.10
2018-07-12T23:36:00.785Z,10.60
2018-07-12T23:37:00.712Z,10.50
2018-07-12T23:38:00.541Z,10.90
2018-07-12T23:39:01.443Z,11.10
2018-07-12T23:40:01.944Z,10.00
2018-07-12T23:41:00.684Z,10.80
2018-07-12T23:42:00.712Z,11.20
2018-07-12T23:43:01.410Z,11.40
2018-07-12T23:44:01.322Z,10.90
2018-07-12T23:45:00.780Z,11.00
2018-07-12T23:46:00.785Z,10.50
2018-07-12T23:47:01.240Z,11.50
2018-07-12T23:48:00.583Z,11.60
2018-07-12T23:49:00.872Z,11.20
2018-07-12T23:50:00.922Z,11.50
2018-07-12T23:51:00.836Z,11.20
2018-07-12T23:52:01.371Z,11.60
2018-07-12T23:53:02.370Z,10.90
2018-07-12T23:54:01.273Z,10.90
2018-07-12T23:55:00.876Z,11.80
2018-07-12T23:56:01.623Z,11.00
2018-07-12T23:57:01.105Z,11.60
2018-07-12T23:58:00.683Z,11.40
2018-07-12T23:59:02.377Z,10.80
